Herman, Nebraska
Current Conditions -  °F | °C
As of 7:54 AM on Friday 24 Oct 2014 (Local Time) from KTQE Reporting Station
Haze Haze  
Wind Chill: 59°   Ceiling: Unl
Heat Index: 59°   Visibility: 6mi
Dew Point: 56°   Wind: 9mph
Humidity: 90%   Direction: 180°S
Pressure: 29.9"   Gusts: NA
Location:  41.67°N, 96.22°W
Report Text: KTQE 241254Z AUTO 18008KT 6SM BR CLR 15/13 A2990 RMK AO2 SLP119 T01500133
Loading
Personal Weather Stations






























Interactive Weather Map
Tropical Storm Tracking
New forecast layout! Learn more

10-Day Weather Forecast

Advertisements
Track Severe Weather on mobile